createdAt,value
2017-08-24T00:00:08.917Z,71.30
2017-08-24T00:02:35.010Z,71.40
2017-08-24T00:05:01.033Z,71.20
2017-08-24T00:07:27.054Z,71.20
2017-08-24T00:09:53.125Z,71.70
2017-08-24T00:12:19.178Z,70.90
2017-08-24T00:14:45.207Z,70.30
2017-08-24T00:17:11.271Z,69.90
2017-08-24T00:19:37.294Z,69.60
2017-08-24T00:22:03.396Z,69.70
2017-08-24T00:24:29.475Z,69.10
2017-08-24T00:26:55.549Z,69.10
2017-08-24T00:29:21.579Z,69.20
2017-08-24T00:31:47.836Z,69.00
2017-08-24T00:34:13.914Z,69.20
2017-08-24T00:36:39.973Z,69.10
2017-08-24T00:39:06.037Z,69.60
2017-08-24T00:41:32.066Z,69.30
2017-08-24T00:43:58.101Z,68.90
2017-08-24T00:46:24.189Z,68.70
2017-08-24T00:48:50.240Z,69.60
2017-08-24T00:51:16.285Z,68.60
2017-08-24T00:53:42.358Z,69.20
2017-08-24T00:56:08.418Z,69.00
2017-08-24T00:58:34.458Z,68.60
2017-08-24T01:01:00.505Z,68.70
2017-08-24T01:03:26.556Z,68.70
2017-08-24T01:05:52.663Z,68.50
2017-08-24T01:08:18.733Z,68.30
2017-08-24T01:10:44.746Z,68.80
2017-08-24T01:13:11.010Z,68.50
2017-08-24T01:15:37.077Z,68.80
2017-08-24T01:18:03.141Z,69.20
2017-08-24T01:20:29.386Z,69.20
2017-08-24T01:22:55.409Z,69.50
2017-08-24T01:25:21.474Z,69.80
2017-08-24T01:27:47.518Z,69.80
2017-08-24T01:30:13.561Z,69.70
2017-08-24T01:32:39.607Z,69.70
2017-08-24T01:35:05.643Z,70.20
2017-08-24T01:37:31.710Z,69.20
2017-08-24T01:39:57.998Z,68.70
2017-08-24T01:42:24.140Z,68.40
2017-08-24T01:44:50.214Z,68.00
2017-08-24T01:47:16.345Z,68.20
2017-08-24T01:49:42.403Z,67.60
2017-08-24T01:52:08.447Z,68.20
2017-08-24T01:54:34.494Z,68.40
2017-08-24T01:57:00.530Z,68.60
2017-08-24T01:59:26.562Z,68.90
2017-08-24T02:01:52.630Z,68.70
2017-08-24T02:04:18.659Z,69.10
2017-08-24T02:06:44.706Z,69.40
2017-08-24T02:09:10.723Z,69.70
2017-08-24T02:11:36.744Z,70.00
2017-08-24T02:14:02.802Z,70.40
2017-08-24T02:16:28.842Z,70.00
2017-08-24T02:18:54.882Z,70.00
2017-08-24T02:21:20.966Z,70.50
2017-08-24T02:23:47.013Z,70.80
2017-08-24T02:26:13.062Z,70.60
2017-08-24T02:28:39.129Z,70.50
2017-08-24T02:31:05.157Z,70.40
2017-08-24T02:33:31.218Z,70.40
2017-08-24T02:35:57.284Z,70.00
2017-08-24T02:38:23.304Z,70.10
2017-08-24T02:40:49.351Z,70.20
2017-08-24T02:43:15.661Z,69.90
2017-08-24T02:45:41.678Z,70.40
2017-08-24T02:48:07.720Z,70.30
2017-08-24T02:50:33.758Z,70.30
2017-08-24T02:52:59.847Z,70.60
2017-08-24T02:55:26.213Z,70.40
2017-08-24T02:57:52.259Z,70.10
2017-08-24T03:00:18.389Z,69.50
2017-08-24T03:02:44.860Z,69.80
2017-08-24T03:05:11.114Z,70.10
2017-08-24T03:07:37.158Z,70.20
2017-08-24T03:10:03.198Z,69.50
2017-08-24T03:12:29.290Z,68.80
2017-08-24T03:14:55.318Z,69.40
2017-08-24T03:17:21.371Z,69.50
2017-08-24T03:19:47.440Z,69.00
2017-08-24T03:22:13.473Z,69.20
2017-08-24T03:24:39.486Z,69.30
2017-08-24T03:27:05.536Z,68.60
2017-08-24T03:29:31.574Z,69.10
2017-08-24T03:31:57.624Z,69.70
2017-08-24T03:34:23.665Z,69.70
2017-08-24T03:36:49.693Z,69.60
2017-08-24T03:39:15.713Z,69.20
2017-08-24T03:41:41.769Z,69.20
2017-08-24T03:44:07.793Z,69.60
2017-08-24T03:46:33.854Z,69.30
2017-08-24T03:48:59.902Z,69.30
2017-08-24T03:51:25.923Z,69.60
2017-08-24T03:53:51.963Z,69.60
2017-08-24T03:56:18.566Z,70.20
2017-08-24T03:58:44.626Z,69.80
2017-08-24T04:01:10.673Z,70.20
2017-08-24T04:03:36.938Z,70.60
2017-08-24T04:06:02.958Z,70.60
2017-08-24T04:08:29.005Z,70.60
2017-08-24T04:10:55.104Z,70.00
2017-08-24T04:13:21.155Z,69.40
2017-08-24T04:15:47.446Z,69.60
2017-08-24T04:18:13.504Z,68.60
2017-08-24T04:20:39.534Z,67.50
2017-08-24T04:23:05.598Z,67.10
2017-08-24T04:25:31.690Z,66.80
2017-08-24T04:27:57.738Z,66.00
2017-08-24T04:30:23.779Z,66.00
2017-08-24T04:32:49.825Z,66.70
2017-08-24T04:35:15.851Z,66.70
2017-08-24T04:37:41.928Z,66.50
2017-08-24T04:40:08.014Z,67.50
2017-08-24T04:42:34.050Z,66.00
2017-08-24T04:45:00.224Z,64.90
2017-08-24T04:47:26.269Z,65.00
2017-08-24T04:49:52.308Z,63.60
2017-08-24T04:52:18.415Z,64.00
2017-08-24T04:54:44.457Z,64.10
2017-08-24T04:57:10.482Z,64.00
2017-08-24T04:59:36.766Z,63.80
2017-08-24T05:02:03.102Z,64.20
2017-08-24T05:04:29.205Z,63.60
2017-08-24T05:06:55.267Z,64.10
2017-08-24T05:09:21.310Z,64.00
2017-08-24T05:11:47.361Z,64.20
2017-08-24T05:14:13.466Z,64.20
2017-08-24T05:16:39.486Z,64.60
2017-08-24T05:19:05.609Z,64.70
2017-08-24T05:21:31.641Z,64.90
2017-08-24T05:23:57.664Z,64.20
2017-08-24T05:26:23.705Z,64.30
2017-08-24T05:28:49.746Z,64.40
2017-08-24T05:31:15.770Z,64.10
2017-08-24T05:33:41.858Z,64.80
2017-08-24T05:36:07.931Z,64.50
2017-08-24T05:38:33.965Z,64.60
2017-08-24T05:41:00.023Z,64.70
2017-08-24T05:43:26.118Z,64.80
2017-08-24T05:45:52.288Z,64.80
2017-08-24T05:48:18.655Z,64.20
2017-08-24T05:50:44.702Z,64.10
2017-08-24T05:53:10.742Z,64.70
2017-08-24T05:55:37.018Z,64.70
2017-08-24T05:58:03.058Z,64.50
2017-08-24T06:00:29.112Z,65.00
2017-08-24T06:02:55.147Z,64.70
2017-08-24T06:05:21.186Z,64.90
2017-08-24T06:07:47.228Z,65.30
2017-08-24T06:10:13.726Z,64.60
2017-08-24T06:12:39.750Z,64.80
2017-08-24T06:15:05.806Z,64.90
2017-08-24T06:17:31.866Z,65.50
2017-08-24T06:19:57.889Z,65.60
2017-08-24T06:22:23.909Z,66.30
2017-08-24T06:24:49.935Z,66.50
2017-08-24T06:27:15.979Z,66.20
2017-08-24T06:29:42.010Z,65.80
2017-08-24T06:32:08.040Z,65.80
2017-08-24T06:34:34.390Z,66.20
2017-08-24T06:37:00.423Z,66.10
2017-08-24T06:39:26.454Z,66.60
2017-08-24T06:41:52.540Z,66.40
2017-08-24T06:44:18.560Z,67.10
2017-08-24T06:46:44.726Z,67.10
2017-08-24T06:49:11.155Z,67.20
2017-08-24T06:51:37.174Z,67.50
2017-08-24T06:54:03.273Z,67.50
2017-08-24T06:56:29.292Z,67.60
2017-08-24T06:58:55.322Z,67.60
2017-08-24T07:01:21.376Z,68.20
2017-08-24T07:03:47.413Z,68.80
2017-08-24T07:06:13.765Z,68.50
2017-08-24T07:08:39.802Z,68.60
2017-08-24T07:11:05.866Z,68.20
2017-08-24T07:13:31.941Z,68.30
2017-08-24T07:15:58.038Z,68.60
2017-08-24T07:18:24.125Z,68.70
2017-08-24T07:20:50.186Z,68.50
2017-08-24T07:23:16.262Z,68.90
2017-08-24T07:25:42.282Z,69.20
2017-08-24T07:28:08.323Z,69.50
2017-08-24T07:30:34.339Z,69.50
2017-08-24T07:33:00.357Z,70.60
2017-08-24T07:35:26.900Z,70.00
2017-08-24T07:37:53.014Z,69.70
2017-08-24T07:40:19.026Z,70.20
2017-08-24T07:42:45.063Z,70.50
2017-08-24T07:45:11.115Z,70.50
2017-08-24T07:47:37.150Z,70.70
2017-08-24T07:50:03.180Z,71.10
2017-08-24T07:52:29.246Z,71.40
2017-08-24T07:54:55.310Z,72.00
2017-08-24T07:57:21.370Z,72.30
2017-08-24T07:59:47.414Z,73.20
2017-08-24T08:02:13.459Z,72.90
2017-08-24T08:04:39.502Z,73.00
2017-08-24T08:07:06.116Z,73.50
2017-08-24T08:09:32.166Z,73.70
2017-08-24T08:11:58.231Z,74.00
2017-08-24T08:14:24.278Z,74.10
2017-08-24T08:16:50.330Z,75.10
2017-08-24T08:19:16.403Z,75.70
2017-08-24T08:21:42.530Z,75.80
2017-08-24T08:24:08.575Z,77.30
2017-08-24T08:26:34.637Z,77.60
2017-08-24T08:29:00.662Z,79.00
2017-08-24T08:31:26.707Z,81.90
2017-08-24T08:33:52.975Z,82.80
2017-08-24T08:36:19.018Z,83.20
2017-08-24T08:38:45.062Z,84.00
2017-08-24T08:41:11.338Z,84.70
2017-08-24T08:43:37.412Z,85.00
2017-08-24T08:46:03.455Z,85.80
2017-08-24T08:48:29.523Z,86.10
2017-08-24T08:50:55.586Z,87.30
2017-08-24T08:53:21.636Z,87.30
2017-08-24T08:55:47.660Z,87.90
2017-08-24T08:58:13.684Z,87.90
2017-08-24T09:00:39.925Z,88.80
2017-08-24T09:03:05.946Z,89.50
2017-08-24T09:05:32.044Z,89.60
2017-08-24T09:07:58.139Z,89.20
2017-08-24T09:10:24.177Z,89.40
2017-08-24T09:12:50.206Z,90.00
2017-08-24T09:15:16.447Z,89.50
2017-08-24T09:17:42.466Z,89.80
2017-08-24T09:20:08.508Z,90.00
2017-08-24T09:22:34.551Z,89.90
2017-08-24T09:25:00.587Z,90.30
2017-08-24T09:27:26.610Z,90.50
2017-08-24T09:29:52.675Z,90.40
2017-08-24T09:32:18.710Z,90.50
2017-08-24T09:34:44.801Z,90.50
2017-08-24T09:37:11.157Z,90.50
2017-08-24T09:39:37.192Z,90.90
2017-08-24T09:42:03.253Z,90.80
2017-08-24T09:44:29.438Z,90.50
2017-08-24T09:46:55.472Z,90.40
2017-08-24T09:49:21.514Z,90.30
2017-08-24T09:51:47.670Z,90.20
2017-08-24T09:54:14.445Z,89.40
2017-08-24T09:56:40.467Z,89.20
2017-08-24T09:59:06.552Z,88.50
2017-08-24T10:01:32.591Z,87.50
2017-08-24T10:03:58.636Z,87.20
2017-08-24T10:06:24.662Z,86.00
2017-08-24T10:08:50.718Z,84.70
2017-08-24T10:11:16.874Z,84.60
2017-08-24T10:13:42.915Z,84.50
2017-08-24T10:16:08.974Z,84.00
2017-08-24T10:18:35.050Z,83.80
2017-08-24T10:21:01.083Z,83.10
2017-08-24T10:23:27.118Z,80.90
2017-08-24T10:25:53.442Z,78.80
2017-08-24T10:28:19.466Z,77.50
2017-08-24T10:30:45.508Z,77.00
2017-08-24T10:33:11.714Z,77.30
2017-08-24T10:35:37.840Z,77.00
2017-08-24T10:38:03.918Z,75.60
2017-08-24T10:40:29.980Z,75.50
2017-08-24T10:42:56.003Z,75.30
2017-08-24T10:45:22.035Z,74.30
2017-08-24T10:47:48.154Z,74.60
2017-08-24T10:50:14.232Z,75.60
2017-08-24T10:52:40.296Z,75.90
2017-08-24T10:55:06.353Z,75.90
2017-08-24T10:57:32.375Z,76.00
2017-08-24T10:59:58.451Z,75.60
2017-08-24T11:02:24.486Z,76.30
2017-08-24T11:04:50.515Z,76.80
2017-08-24T11:07:16.827Z,75.00
2017-08-24T11:09:42.842Z,75.20
2017-08-24T11:12:08.967Z,75.30
2017-08-24T11:14:35.059Z,73.20
2017-08-24T11:17:01.129Z,72.30
2017-08-24T11:19:27.201Z,71.70
2017-08-24T11:21:53.248Z,71.10
2017-08-24T11:24:19.284Z,71.20
2017-08-24T11:26:45.319Z,71.20
2017-08-24T11:29:12.470Z,70.40
2017-08-24T11:31:38.490Z,70.40
2017-08-24T11:34:04.524Z,70.20
2017-08-24T11:36:30.934Z,70.00
2017-08-24T11:38:57.098Z,70.30
2017-08-24T11:41:23.143Z,70.20
2017-08-24T11:43:49.186Z,70.20
2017-08-24T11:46:15.201Z,70.50
2017-08-24T11:48:41.271Z,70.20
2017-08-24T11:51:07.320Z,69.30
2017-08-24T11:53:33.363Z,68.60
2017-08-24T11:56:00.282Z,68.30
2017-08-24T11:58:26.572Z,64.70
2017-08-24T12:00:52.618Z,64.70
2017-08-24T12:03:18.659Z,64.30
2017-08-24T12:05:44.707Z,64.60
2017-08-24T12:08:10.727Z,65.50
2017-08-24T12:10:36.785Z,64.90
2017-08-24T12:13:02.886Z,65.20
2017-08-24T12:15:28.926Z,63.00
2017-08-24T12:17:55.010Z,59.80
2017-08-24T12:20:21.082Z,58.50
2017-08-24T12:22:47.104Z,58.90
2017-08-24T12:25:13.165Z,57.60
2017-08-24T12:27:39.207Z,56.10
2017-08-24T12:30:05.273Z,55.00
2017-08-24T12:32:31.321Z,54.80
2017-08-24T12:34:57.363Z,55.30
2017-08-24T12:37:23.593Z,56.80
2017-08-24T12:39:49.663Z,56.80
2017-08-24T12:42:15.731Z,56.00
2017-08-24T12:44:41.813Z,55.80
2017-08-24T12:47:07.817Z,56.20
2017-08-24T12:49:33.858Z,55.30
2017-08-24T12:52:00.004Z,54.60
2017-08-24T12:54:26.015Z,54.20
2017-08-24T12:56:52.058Z,54.90
2017-08-24T12:59:18.069Z,55.10
2017-08-24T13:01:44.114Z,55.50
2017-08-24T13:04:10.173Z,55.60
2017-08-24T13:06:36.246Z,55.40
2017-08-24T13:09:02.280Z,54.70
2017-08-24T13:11:28.344Z,54.90
2017-08-24T13:13:54.465Z,55.60
2017-08-24T13:16:20.494Z,55.80
2017-08-24T13:18:46.547Z,54.50
2017-08-24T13:21:12.769Z,55.50
2017-08-24T13:23:38.795Z,55.00
2017-08-24T13:26:05.042Z,56.10
2017-08-24T13:28:31.100Z,55.10
2017-08-24T13:30:57.119Z,54.80
2017-08-24T13:33:23.189Z,53.80
2017-08-24T13:35:49.207Z,53.20
2017-08-24T13:38:15.240Z,53.10
2017-08-24T13:40:41.246Z,52.80
2017-08-24T13:43:07.267Z,53.60
2017-08-24T13:45:33.457Z,53.00
2017-08-24T13:47:59.475Z,53.30
2017-08-24T13:50:25.522Z,52.20
2017-08-24T13:52:51.806Z,53.40
2017-08-24T13:55:17.817Z,53.10
2017-08-24T13:57:43.857Z,52.40
2017-08-24T14:00:10.110Z,51.90
2017-08-24T14:02:36.155Z,52.90
2017-08-24T14:05:02.184Z,52.70
2017-08-24T14:07:28.408Z,52.80
2017-08-24T14:09:54.429Z,52.30
2017-08-24T14:12:20.459Z,52.70
2017-08-24T14:14:46.806Z,53.90
2017-08-24T14:17:12.823Z,53.00
2017-08-24T14:19:38.866Z,53.50
2017-08-24T14:22:05.359Z,53.20
2017-08-24T14:24:31.411Z,53.00
2017-08-24T14:26:57.434Z,53.30
2017-08-24T14:29:23.766Z,53.00
2017-08-24T14:31:50.369Z,54.20
2017-08-24T14:34:16.383Z,53.20
2017-08-24T14:36:42.425Z,53.70
2017-08-24T14:39:08.448Z,54.60
2017-08-24T14:41:34.482Z,56.10
2017-08-24T14:44:00.530Z,54.50
2017-08-24T14:46:26.554Z,54.30
2017-08-24T14:48:52.584Z,55.20
2017-08-24T14:51:18.658Z,55.50
2017-08-24T14:53:44.690Z,55.70
2017-08-24T14:56:10.753Z,55.10
2017-08-24T14:58:37.045Z,55.30
2017-08-24T15:01:03.099Z,56.00
2017-08-24T15:03:29.121Z,55.50
2017-08-24T15:05:55.166Z,55.70
2017-08-24T15:08:21.194Z,55.90
2017-08-24T15:10:47.249Z,56.50
2017-08-24T15:13:13.549Z,55.80
2017-08-24T15:15:39.654Z,56.20
2017-08-24T15:18:05.893Z,56.80
2017-08-24T15:20:31.940Z,57.60
2017-08-24T15:22:57.974Z,58.30
2017-08-24T15:25:23.998Z,57.80
2017-08-24T15:27:50.055Z,58.50
2017-08-24T15:30:16.094Z,58.00
2017-08-24T15:32:42.171Z,57.60
2017-08-24T15:35:08.197Z,57.90
2017-08-24T15:37:34.279Z,58.00
2017-08-24T15:40:00.334Z,58.50
2017-08-24T15:42:26.349Z,58.60
2017-08-24T15:44:52.372Z,59.30
2017-08-24T15:47:18.445Z,59.10
2017-08-24T15:49:44.476Z,59.20
2017-08-24T15:52:10.562Z,58.90
2017-08-24T15:54:36.874Z,59.60
2017-08-24T15:57:02.911Z,59.30
2017-08-24T15:59:28.939Z,59.80
2017-08-24T16:01:54.985Z,59.80
2017-08-24T16:04:21.007Z,60.30
2017-08-24T16:06:47.065Z,60.90
2017-08-24T16:09:13.300Z,61.40
2017-08-24T16:11:39.342Z,61.60
2017-08-24T16:14:05.370Z,62.10
2017-08-24T16:16:31.782Z,62.80
2017-08-24T16:18:57.819Z,63.20
2017-08-24T16:21:23.852Z,63.30
2017-08-24T16:23:50.157Z,63.20
2017-08-24T16:26:16.174Z,63.80
2017-08-24T16:28:42.210Z,63.70
2017-08-24T16:31:08.273Z,64.00
2017-08-24T16:33:34.294Z,64.00
2017-08-24T16:36:00.314Z,64.30
2017-08-24T16:38:26.365Z,64.40
2017-08-24T16:40:52.424Z,64.60
2017-08-24T16:43:18.451Z,65.10
2017-08-24T16:45:44.489Z,65.60
2017-08-24T16:48:10.522Z,64.80
2017-08-24T16:50:36.566Z,65.20
2017-08-24T16:53:02.820Z,64.90
2017-08-24T16:55:28.841Z,64.50
2017-08-24T16:57:54.886Z,64.50
2017-08-24T17:00:20.903Z,64.90
2017-08-24T17:02:46.924Z,65.40
2017-08-24T17:05:12.962Z,65.50
2017-08-24T17:07:39.008Z,66.10
2017-08-24T17:10:05.018Z,65.40
2017-08-24T17:12:31.090Z,65.00
2017-08-24T17:14:57.143Z,64.70
2017-08-24T17:17:23.762Z,64.60
2017-08-24T17:19:50.066Z,64.80
2017-08-24T17:22:16.118Z,65.00
2017-08-24T17:24:42.136Z,65.00
2017-08-24T17:27:08.178Z,64.40
2017-08-24T17:29:34.226Z,64.50
2017-08-24T17:32:00.313Z,64.50
2017-08-24T17:34:26.374Z,64.80
2017-08-24T17:36:52.398Z,65.00
2017-08-24T17:39:18.418Z,64.80
2017-08-24T17:41:44.481Z,65.10
2017-08-24T17:44:10.514Z,65.50
2017-08-24T17:46:36.554Z,65.20
2017-08-24T17:49:02.939Z,65.50
2017-08-24T17:51:28.974Z,65.90
2017-08-24T17:53:55.008Z,64.60
2017-08-24T17:56:21.109Z,62.20
2017-08-24T17:58:47.214Z,62.70
2017-08-24T18:01:13.262Z,63.40
2017-08-24T18:03:39.339Z,62.80
2017-08-24T18:06:05.559Z,61.80
2017-08-24T18:08:31.592Z,61.10
2017-08-24T18:10:57.628Z,61.40
2017-08-24T18:13:23.740Z,61.70
2017-08-24T18:15:49.824Z,61.60
2017-08-24T18:18:16.120Z,61.30
2017-08-24T18:20:42.162Z,61.50
2017-08-24T18:23:08.215Z,61.40
2017-08-24T18:25:34.293Z,61.80
2017-08-24T18:28:00.317Z,62.20
2017-08-24T18:30:26.372Z,61.80
2017-08-24T18:32:52.471Z,61.80
2017-08-24T18:35:18.488Z,62.10
2017-08-24T18:37:44.546Z,62.60
2017-08-24T18:40:10.599Z,62.60
2017-08-24T18:42:36.631Z,62.90
2017-08-24T18:45:02.983Z,62.90
2017-08-24T18:47:29.027Z,62.90
2017-08-24T18:49:55.050Z,63.20
2017-08-24T18:52:21.168Z,64.00
2017-08-24T18:54:47.195Z,63.60
2017-08-24T18:57:13.228Z,63.90
2017-08-24T18:59:39.289Z,64.20
2017-08-24T19:02:05.330Z,64.30
2017-08-24T19:04:31.359Z,64.00
2017-08-24T19:06:57.433Z,64.50
2017-08-24T19:09:23.482Z,64.50
2017-08-24T19:11:49.558Z,64.80
2017-08-24T19:14:15.581Z,64.90
2017-08-24T19:16:41.637Z,65.20
2017-08-24T19:19:08.001Z,65.50
2017-08-24T19:21:34.026Z,66.00
2017-08-24T19:24:00.091Z,65.50
2017-08-24T19:26:26.139Z,66.40
2017-08-24T19:28:52.167Z,65.80
2017-08-24T19:31:18.226Z,65.90
2017-08-24T19:33:44.307Z,66.80
2017-08-24T19:36:10.327Z,66.70
2017-08-24T19:38:36.356Z,67.30
2017-08-24T19:41:02.503Z,67.10
2017-08-24T19:43:28.588Z,67.60
2017-08-24T19:45:54.644Z,68.30
2017-08-24T19:48:20.671Z,68.20
2017-08-24T19:50:46.722Z,68.40
2017-08-24T19:53:12.791Z,68.80
2017-08-24T19:55:38.900Z,68.90
2017-08-24T19:58:05.045Z,69.00
2017-08-24T20:00:31.150Z,69.30
2017-08-24T20:02:57.232Z,69.00
2017-08-24T20:05:23.314Z,69.00
2017-08-24T20:07:49.374Z,69.20
2017-08-24T20:10:15.471Z,69.70
2017-08-24T20:12:41.581Z,69.70
2017-08-24T20:15:07.619Z,69.70
2017-08-24T20:17:33.669Z,69.80
2017-08-24T20:19:59.754Z,70.10
2017-08-24T20:22:25.878Z,69.90
2017-08-24T20:24:51.902Z,70.00
2017-08-24T20:27:17.977Z,70.60
2017-08-24T20:29:43.994Z,70.90
2017-08-24T20:32:10.104Z,71.10
2017-08-24T20:34:36.362Z,71.60
2017-08-24T20:37:02.391Z,71.40
2017-08-24T20:39:28.419Z,71.50
2017-08-24T20:41:54.455Z,72.00
2017-08-24T20:44:20.551Z,71.90
2017-08-24T20:46:46.599Z,72.20
2017-08-24T20:49:12.662Z,72.50
2017-08-24T20:51:38.710Z,72.70
2017-08-24T20:54:04.735Z,72.60
2017-08-24T20:56:30.774Z,72.90
2017-08-24T20:58:56.814Z,73.10
2017-08-24T21:01:22.834Z,73.40
2017-08-24T21:03:48.871Z,73.80
2017-08-24T21:06:14.914Z,74.20
2017-08-24T21:08:41.112Z,74.20
2017-08-24T21:11:07.334Z,74.60
2017-08-24T21:13:33.370Z,74.40
2017-08-24T21:15:59.382Z,75.20
2017-08-24T21:18:25.679Z,75.20
2017-08-24T21:20:51.694Z,75.60
2017-08-24T21:23:17.726Z,75.60
2017-08-24T21:25:44.061Z,75.70
2017-08-24T21:28:10.123Z,76.80
2017-08-24T21:30:36.230Z,76.20
2017-08-24T21:33:02.832Z,76.30
2017-08-24T21:35:29.990Z,76.50
2017-08-24T21:37:56.815Z,76.70
2017-08-24T21:40:23.128Z,76.80
2017-08-24T21:42:49.498Z,77.00
2017-08-24T21:45:15.719Z,77.20
2017-08-24T21:47:42.711Z,77.30
2017-08-24T21:50:09.493Z,77.30
2017-08-24T21:52:35.912Z,77.70
2017-08-24T21:55:02.653Z,77.60
2017-08-24T21:57:28.923Z,77.60
2017-08-24T21:59:55.108Z,77.90
2017-08-24T22:02:21.494Z,78.00
2017-08-24T22:04:47.846Z,78.00
2017-08-24T22:07:14.028Z,77.90
2017-08-24T22:09:40.794Z,78.00
2017-08-24T22:12:06.917Z,78.30
2017-08-24T22:14:33.147Z,78.50
2017-08-24T22:16:59.530Z,78.90
2017-08-24T22:19:25.804Z,78.70
2017-08-24T22:21:52.032Z,78.80
2017-08-24T22:24:18.642Z,79.00
2017-08-24T22:26:45.140Z,79.00
2017-08-24T22:29:11.389Z,78.90
2017-08-24T22:31:37.485Z,78.90
2017-08-24T22:34:03.512Z,79.10
2017-08-24T22:36:29.545Z,79.10
2017-08-24T22:38:55.598Z,79.10
2017-08-24T22:41:21.635Z,80.10
2017-08-24T22:43:47.678Z,79.40
2017-08-24T22:46:13.730Z,79.90
2017-08-24T22:48:39.755Z,79.00
2017-08-24T22:51:05.779Z,79.50
2017-08-24T22:53:38.027Z,79.40
2017-08-24T22:56:10.113Z,79.70
2017-08-24T22:58:42.561Z,79.70
2017-08-24T23:01:14.584Z,79.80
2017-08-24T23:03:46.808Z,79.50
2017-08-24T23:06:12.863Z,79.60
2017-08-24T23:08:38.960Z,79.60
2017-08-24T23:11:05.021Z,79.90
2017-08-24T23:13:31.080Z,80.00
2017-08-24T23:15:57.110Z,80.10
2017-08-24T23:18:23.130Z,80.10
2017-08-24T23:20:49.186Z,80.30
2017-08-24T23:23:15.370Z,80.20
2017-08-24T23:25:41.407Z,80.30
2017-08-24T23:28:07.434Z,80.20
2017-08-24T23:30:34.266Z,80.10
2017-08-24T23:33:00.283Z,80.00
2017-08-24T23:35:26.342Z,80.10
2017-08-24T23:37:52.378Z,80.10
2017-08-24T23:40:18.410Z,80.20
2017-08-24T23:42:44.464Z,80.30
2017-08-24T23:45:10.489Z,80.40
2017-08-24T23:47:36.526Z,80.50
2017-08-24T23:50:02.590Z,80.30
2017-08-24T23:52:28.634Z,80.40
2017-08-24T23:54:54.680Z,80.40
2017-08-24T23:57:20.747Z,80.30
2017-08-24T23:59:46.790Z,80.60
